M I D A S
Marine Information and Data Acquisition System
Tripno 760 of the Zeeleeuw from 2004-06-25 06:46:14 to 2004-06-25 15:04:37
Back to CruiseResearch ActivitiesStationsMapUnderway DataData graphs

EquipmentUnitsComments
TimeDGPSUTC
LatitudeDGPSDM.mWGS84
LongitudeDGPSDM.mWGS84
SpeedMeteo Stationm/sRelative wind speed
DirectionMeteo StationdegRelative wind direction
TemperatureMeteo Stationdeg CelciusAir temperature
PressureMeteo StationPaAtmospheric pressure
HumidityMeteo Station%Relative humidity
Missing or incorrect values are displayed as -999
Metereological data collected by the RV Zeeleeuw from 2004-06-25 06:46:14 to 2004-06-25 15:04:37
Time Latitude Longitude Speed Direction Temperature Pressure Humidity
2004-06-25 06:47 51°13.66 2°55.967 7 197 14.4 101470 67
2004-06-25 06:48 51°13.677 2°55.903 7 205 14.3 101470 64
2004-06-25 06:49 51°13.697 2°55.791 6 214 14.4 101480 64
2004-06-25 06:50 51°13.705 2°55.77 7.7 273 14.4 101470 66
2004-06-25 06:51 51°13.701 2°55.758 3.2 324 14.4 101470 65
2004-06-25 06:52 51°13.77 2°55.699 7.4 357 14.4 101460 64
2004-06-25 06:53 51°13.873 2°55.603 8.2 340 14.3 101450 63
2004-06-25 06:54 51°14 2°55.515 8.7 333 14.3 101450 64
2004-06-25 06:55 51°14.146 2°55.411 16 337 14.3 101440 66
2004-06-25 06:56 51°14.283 2°55.224 16.4 358 14.3 101420 67
2004-06-25 06:57 51°14.403 2°55.018 16 338 14.3 101440 68
2004-06-25 06:58 51°14.582 2°54.911 16.6 333 14.2 101430 67
2004-06-25 06:59 51°14.76 2°54.799 15.5 324 14.2 101410 68
2004-06-25 07:00 51°14.952 2°54.708 17.8 333 14.2 101390 68
2004-06-25 07:01 51°15.158 2°54.616 17.1 331 14.1 101410 67
2004-06-25 07:02 51°15.354 2°54.538 15.4 332 14.1 101430 67
2004-06-25 07:03 51°15.557 2°54.453 17.5 334 14.1 101430 68
2004-06-25 07:04 51°15.751 2°54.372 15.6 334 14.2 101430 68
2004-06-25 07:05 51°15.962 2°54.288 16 326 14.1 101420 67
2004-06-25 07:06 51°16.153 2°54.241 13.2 312 14.1 101430 66
2004-06-25 07:07 51°16.255 2°54.279 9.1 279 14.2 101470 68
2004-06-25 07:08 51°16.282 2°54.329 7.7 252 14.2 101480 69
2004-06-25 07:09 51°16.291 2°54.371 9.9 258 14.1 101480 68
2004-06-25 07:10 51°16.302 2°54.411 8.1 261 14.1 101480 68
2004-06-25 07:11 51°16.332 2°54.461 13.9 269 14.1 101480 69
2004-06-25 07:12 51°16.368 2°54.523 10.8 264 14.1 101460 67
2004-06-25 07:13 51°16.399 2°54.588 7.2 255 14.1 101480 66
2004-06-25 07:14 51°16.429 2°54.654 6.3 248 14.1 101480 68
2004-06-25 07:15 51°16.454 2°54.726 10.7 243 14.1 101490 70
2004-06-25 07:16 51°16.477 2°54.799 8.8 248 14 101490 68
2004-06-25 07:17 51°16.502 2°54.869 10.6 241 13.9 101480 67
2004-06-25 07:18 51°16.527 2°54.938 5.9 246 13.9 101500 68
2004-06-25 07:19 51°16.554 2°55.011 6.7 253 13.9 101510 67
2004-06-25 07:20 51°16.578 2°55.078 9.2 259 14 101500 68
2004-06-25 07:21 51°16.603 2°55.14 9.1 259 14 101500 68
2004-06-25 07:22 51°16.628 2°55.2 7.2 257 14 101500 66
2004-06-25 07:23 51°16.655 2°55.263 8.6 248 13.9 101510 68
2004-06-25 07:24 51°16.684 2°55.341 9 245 13.9 101510 68
2004-06-25 07:25 51°16.704 2°55.418 8.8 219 14 101510 69
2004-06-25 07:26 51°16.718 2°55.508 6.8 201 13.9 101520 66
2004-06-25 07:27 51°16.724 2°55.59 6.2 201 14 101510 69
2004-06-25 07:28 51°16.726 2°55.68 5.2 198 14 101520 67
2004-06-25 07:29 51°16.725 2°55.766 6.2 198 14.1 101530 68
2004-06-25 07:30 51°16.725 2°55.846 6.3 201 14.1 101520 68
2004-06-25 07:31 51°16.729 2°55.928 9 208 14.1 101520 66
2004-06-25 07:32 51°16.736 2°56.013 8.9 227 14.1 101520 69
2004-06-25 07:33 51°16.745 2°56.092 9.4 226 14 101520 71
2004-06-25 07:34 51°16.758 2°56.166 9.2 240 13.9 101520 67
2004-06-25 07:35 51°16.777 2°56.241 10 232 13.9 101510 68
2004-06-25 07:36 51°16.796 2°56.316 9.5 246 13.9 101520 69
2004-06-25 07:37 51°16.816 2°56.387 8.9 237 13.9 101520 68
2004-06-25 07:38 51°16.831 2°56.451 8 249 13.9 101510 68
2004-06-25 07:39 51°16.847 2°56.511 9 241 13.9 101520 69
2004-06-25 07:40 51°16.865 2°56.574 9.4 234 14 101510 69
2004-06-25 07:41 51°16.885 2°56.637 9.9 236 13.9 101530 68
2004-06-25 07:42 51°16.897 2°56.701 8.5 218 14 101530 69
2004-06-25 07:43 51°16.901 2°56.777 8.1 196 14 101540 70
2004-06-25 07:44 51°16.895 2°56.85 7 177 13.9 101540 69
2004-06-25 07:45 51°16.885 2°56.915 8.3 160 14 101550 70
2004-06-25 07:46 51°16.869 2°56.968 9 141 14 101550 68
2004-06-25 07:47 51°16.851 2°57.006 10.1 124 14 101540 70
2004-06-25 07:48 51°16.827 2°57.031 11.7 88 13.9 101540 69
2004-06-25 07:49 51°16.788 2°57.031 10.9 81 13.9 101540 70
2004-06-25 07:50 51°16.76 2°57.015 9.6 68 13.9 101550 71
2004-06-25 07:51 51°16.746 2°57.014 9.9 71 14 101530 73
2004-06-25 07:52 51°16.738 2°57.022 10.2 65 13.9 101540 70
2004-06-25 07:53 51°16.733 2°57.039 10 76 13.8 101560 70
2004-06-25 07:54 51°16.729 2°57.061 10.8 95 13.8 101540 69
2004-06-25 07:55 51°16.727 2°57.084 10.7 90 13.8 101560 71
2004-06-25 07:56 51°16.725 2°57.109 8.9 101 13.8 101540 69
2004-06-25 07:57 51°16.723 2°57.133 11.3 107 13.9 101570 71
2004-06-25 07:58 51°16.72 2°57.156 10.5 98 13.9 101580 72
2004-06-25 07:59 51°16.715 2°57.176 10.7 102 13.8 101560 70
2004-06-25 08:00 51°16.711 2°57.196 9.7 101 13.8 101550 70
2004-06-25 08:01 51°16.71 2°57.219 12.6 92 13.8 101560 70
2004-06-25 08:02 51°16.705 2°57.238 8.9 104 13.9 101570 70
2004-06-25 08:03 51°16.697 2°57.256 9.9 89 14 101570 72
2004-06-25 08:04 51°16.671 2°57.243 10.3 47 13.9 101570 71
2004-06-25 08:05 51°16.652 2°57.189 11.3 19 13.8 101540 69
2004-06-25 08:06 51°16.647 2°57.123 11.7 12 13.8 101540 69
2004-06-25 08:07 51°16.652 2°57.053 12 9 13.9 101560 72
2004-06-25 08:08 51°16.657 2°56.977 10.1 16 13.9 101540 69
2004-06-25 08:09 51°16.653 2°56.912 12.6 31 13.9 101540 69
2004-06-25 08:10 51°16.652 2°56.849 11.2 3 13.9 101540 69
2004-06-25 08:11 51°16.665 2°56.795 11.1 358 13.9 101550 69
2004-06-25 08:12 51°16.685 2°56.743 10.2 355 13.9 101560 69
2004-06-25 08:13 51°16.709 2°56.681 10.9 359 13.8 101570 68
2004-06-25 08:14 51°16.732 2°56.614 12.9 348 14 101570 71
2004-06-25 08:15 51°16.752 2°56.557 11.5 352 14 101570 71
2004-06-25 08:16 51°16.778 2°56.502 11.1 348 14.1 101570 71
2004-06-25 08:17 51°16.804 2°56.442 12.6 348 14 101570 69
2004-06-25 08:18 51°16.83 2°56.394 11.5 338 14 101570 70
2004-06-25 08:19 51°16.858 2°56.341 10.9 348 14 101570 71
2004-06-25 08:20 51°16.882 2°56.275 12.7 346 14 101570 71
2004-06-25 08:21 51°16.907 2°56.211 11.1 353 14 101570 70
2004-06-25 08:22 51°16.933 2°56.148 10.2 356 14 101570 69
2004-06-25 08:23 51°16.958 2°56.085 10.6 350 13.9 101590 69
2004-06-25 08:24 51°16.982 2°56.018 11.1 351 14 101570 69
2004-06-25 08:25 51°17.004 2°55.946 11.5   14 101590 70
2004-06-25 08:26 51°17.024 2°55.875 11.6 1 14 101580 70
2004-06-25 08:27 51°17.041 2°55.814 12.8 4 14 101580 71
2004-06-25 08:28 51°17.051 2°55.753 9.9 355 13.9 101580 70
2004-06-25 08:29 51°17.07 2°55.69 10.2 1 13.9 101600 69
2004-06-25 08:30 51°17.094 2°55.641 11 337 14 101590 70
2004-06-25 08:31 51°17.13 2°55.604 11.1 315 14 101580 69
2004-06-25 08:32 51°17.167 2°55.572 11.8 332 14 101590 71
2004-06-25 08:33 51°17.209 2°55.541 11 41 14 101590 68
2004-06-25 08:34 51°17.255 2°55.524 10.9 310 13.9 101590 69
2004-06-25 08:35 51°17.307 2°55.515 12.2 307 14 101610 71
2004-06-25 08:36 51°17.358 2°55.52 10.4 292 14 101600 70
2004-06-25 08:37 51°17.387 2°55.532 9 290 14 101600 71
2004-06-25 08:38 51°17.403 2°55.549 9.6 279 14.1 101610 71
2004-06-25 08:39 51°17.419 2°55.566 10 276 14.1 101620 71
2004-06-25 08:40 51°17.467 2°55.685 5.5 194 14 101620 71
2004-06-25 08:41 51°17.361 2°55.821 10.4 77 14 101640 71
2004-06-25 08:42 51°17.253 2°55.659 14.5 35 14 101590 69
2004-06-25 08:43 51°17.143 2°55.368 17.7 27 13.9 101600 71
2004-06-25 08:44 51°17.06 2°55.047 17.4 20 13.8 101600 71
2004-06-25 08:45 51°16.985 2°54.729 16.6 25 13.8 101620 70
2004-06-25 08:46 51°16.929 2°54.389 16.5 13 13.8 101610 69
2004-06-25 08:47 51°16.913 2°54.04 18.9 11 13.9 101610 70
2004-06-25 08:48 51°16.894 2°53.703 18.6 18 13.8 101600 70
2004-06-25 08:49 51°16.885 2°53.351 17.2 14 13.8 101620 70
2004-06-25 08:51 51°16.947 2°53.008 16.7 344 13.8 101630 71
2004-06-25 08:52 51°17.082 2°52.732 19.2 344 13.8 101580 69
2004-06-25 08:53 51°17.22 2°52.455 18.7 344 13.9 101580 70
2004-06-25 08:54 51°17.37 2°52.209 16.6 337 13.9 101590 70
2004-06-25 08:55 51°17.527 2°51.973 17 340 14 101600 70
2004-06-25 08:56 51°17.683 2°51.755 15.4 342 14 101610 70
2004-06-25 08:57 51°17.852 2°51.542 15.9 347 13.9 101590 70
2004-06-25 08:58 51°18.033 2°51.335 14.8 334 14 101590 70
2004-06-25 08:59 51°18.226 2°51.114 18.4 338 14 101590 71
2004-06-25 09:00 51°18.399 2°50.918 13.8 323 14 101590 70
2004-06-25 09:01 51°18.498 2°50.905 9.9 274 14 101640 70
2004-06-25 09:02 51°18.507 2°50.92 7.1 256 14 101650 71
2004-06-25 09:03 51°18.512 2°50.933 9.5 258 13.9 101640 70
2004-06-25 09:04 51°18.518 2°50.945 9.2 259 13.9 101650 71
2004-06-25 09:05 51°18.549 2°50.958 11.7 279 13.9 101640 71
2004-06-25 09:06 51°18.601 2°50.978 10.6 271 13.9 101640 70
2004-06-25 09:07 51°18.646 2°51.017 11.5 261 13.9 101650 70
2004-06-25 09:08 51°18.687 2°51.055 8.3 272 14 101650 72
2004-06-25 09:09 51°18.727 2°51.092 11.2 269 14.1 101660 72
2004-06-25 09:10 51°18.765 2°51.141 8.8 245 14 101660 70
2004-06-25 09:11 51°18.797 2°51.198 10.9 241 14 101670 70
2004-06-25 09:12 51°18.83 2°51.256 10 241 13.9 101670 70
2004-06-25 09:13 51°18.863 2°51.311 8.4 245 13.9 101670 70
2004-06-25 09:14 51°18.897 2°51.363 6 253 13.9 101680 71
2004-06-25 09:15 51°18.929 2°51.415 6.6 254 14 101670 72
2004-06-25 09:16 51°18.961 2°51.467 8.5 243 14 101680 70
2004-06-25 09:17 51°18.993 2°51.52 7.5 249 14 101660 70
2004-06-25 09:18 51°19.025 2°51.574 7.6 245 13.9 101670 69
2004-06-25 09:19 51°19.059 2°51.63 5.7 249 13.9 101670 71
2004-06-25 09:20 51°19.089 2°51.687 7.5 248 13.9 101680 71
2004-06-25 09:21 51°19.118 2°51.745 9.8 242 14 101680 72
2004-06-25 09:22 51°19.149 2°51.803 8 233 13.9 101680 69
2004-06-25 09:23 51°19.181 2°51.863 8.7 245 13.9 101680 70
2004-06-25 09:24 51°19.213 2°51.921 7.9 243 13.8 101680 70
2004-06-25 09:25 51°19.244 2°51.978 9.1 241 13.9 101690 71
2004-06-25 09:26 51°19.276 2°52.035 5.9 257 13.8 101680 69
2004-06-25 09:27 51°19.308 2°52.09 6.8 251 13.9 101690 71
2004-06-25 09:28 51°19.341 2°52.142 8.7 246 13.9 101690 72
2004-06-25 09:29 51°19.375 2°52.196 7.5 254 13.8 101690 69
2004-06-25 09:30 51°19.408 2°52.252 7.1 250 13.8 101690 69
2004-06-25 09:31 51°19.436 2°52.314 8.6 243 13.8 101690 70
2004-06-25 09:32 51°19.465 2°52.373 9.1 248 13.8 101690 69
2004-06-25 09:33 51°19.497 2°52.427 6.5 250 13.8 101710 69
2004-06-25 09:34 51°19.531 2°52.477 6.5 256 13.9 101710 71
2004-06-25 09:35 51°19.563 2°52.531 9.5 237 14 101700 70
2004-06-25 09:36 51°19.585 2°52.594 5.8 226 13.9 101700 71
2004-06-25 09:37 51°19.586 2°52.663 10 173 13.9 101710 70
2004-06-25 09:38 51°19.574 2°52.715 9.1 148 13.9 101720 69
2004-06-25 09:39 51°19.555 2°52.754 9.8 128 13.9 101720 71
2004-06-25 09:40 51°19.532 2°52.776 10.8 118 14 101720 71
2004-06-25 09:41 51°19.491 2°52.777 9.3 85 14 101720 71
2004-06-25 09:42 51°19.444 2°52.752 11.5 81 14 101680 71
2004-06-25 09:43 51°19.394 2°52.721 10.8 68 13.9 101690 71
2004-06-25 09:44 51°19.345 2°52.681 11.3 66 13.9 101690 69
2004-06-25 09:45 51°19.3 2°52.64 10.9 65 13.8 101700 69
2004-06-25 09:46 51°19.258 2°52.592 11.6 59 13.9 101700 70
2004-06-25 09:47 51°19.213 2°52.538 11.3 71 14 101700 71
2004-06-25 09:48 51°19.175 2°52.486 11.3 59 14 101700 71
2004-06-25 09:49 51°19.136 2°52.437 12.2 56 13.9 101690 69
2004-06-25 09:50 51°19.097 2°52.386 12.4 54 13.9 101700 72
2004-06-25 09:51 51°19.059 2°52.344 11.9 59 13.9 101700 70
2004-06-25 09:52 51°19.02 2°52.3 12.3 61 13.9 101700 70
2004-06-25 09:53 51°18.978 2°52.254 11.9 60 13.9 101700 71
2004-06-25 09:54 51°18.936 2°52.212 10.6 61 13.9 101700 70
2004-06-25 09:55 51°18.894 2°52.17 12.1 53 13.9 101700 70
2004-06-25 09:56 51°18.854 2°52.125 12 56 13.9 101710 69
2004-06-25 09:57 51°18.818 2°52.077 11.6 44 14 101710 72
2004-06-25 09:58 51°18.786 2°52.025 11 47 14 101710 69
2004-06-25 09:59 51°18.756 2°51.967 11.9 45 14 101720 71
2004-06-25 10:00 51°18.725 2°51.913 11.2 50 13.9 101720 68
2004-06-25 10:01 51°18.694 2°51.858 10.7 53 13.9 101720 69
2004-06-25 10:02 51°18.665 2°51.796 10.7 41 14 101720 70
2004-06-25 10:03 51°18.638 2°51.728 12.2 38 14.1 101730 71
2004-06-25 10:04 51°18.609 2°51.666 10.6 42 14 101740 71
2004-06-25 10:05 51°18.58 2°51.606 13.3 33 14 101730 69
2004-06-25 10:06 51°18.551 2°51.549 12.5 47 14 101730 69
2004-06-25 10:07 51°18.512 2°51.483 11.5 44 14 101730 67
2004-06-25 10:08 51°18.48 2°51.426 11.5 41 14 101730 67
2004-06-25 10:09 51°18.451 2°51.369 10.3 41 13.9 101730 67
2004-06-25 10:10 51°18.423 2°51.31 10.6 39 13.9 101730 67
2004-06-25 10:11 51°18.395 2°51.252 11.3 36 14 101740 69
2004-06-25 10:12 51°18.366 2°51.189 12.6 35 14.1 101730 71
2004-06-25 10:13 51°18.345 2°51.158 11.2 47 14 101730 68
2004-06-25 10:14 51°18.334 2°51.052 12.6 341 14 101740 68
2004-06-25 10:15 51°18.433 2°51.003 10.3 262 14.2 101730 69
2004-06-25 10:16 51°18.517 2°51.224 4.2 247 14.2 101770 68
2004-06-25 10:17 51°18.61 2°51.526 5.5 259 14.3 101760 69
2004-06-25 10:18 51°18.705 2°51.837 5.9 292 14.2 101750 67
2004-06-25 10:19 51°18.798 2°52.14 8 270 14.3 101760 67
2004-06-25 10:20 51°18.885 2°52.433 6.1 260 14.3 101760 67
2004-06-25 10:21 51°18.984 2°52.747 7.7 277 14.3 101770 65
2004-06-25 10:22 51°19.083 2°53.052 6.4 259 14.3 101770 65
2004-06-25 10:23 51°19.175 2°53.36 5.4 251 14.3 101770 65
2004-06-25 10:24 51°19.267 2°53.66 6.6 265 14.3 101770 66
2004-06-25 10:25 51°19.357 2°53.97 7.6 260 14.3 101770 67
2004-06-25 10:26 51°19.452 2°54.272 5.8 250 14.3 101770 67
2004-06-25 10:27 51°19.548 2°54.58 4.6 255 14.3 101770 67
2004-06-25 10:28 51°19.649 2°54.879 6.1 261 14.3 101770 69
2004-06-25 10:29 51°19.742 2°55.209 3.4 258 14.3 101760 68
2004-06-25 10:30 51°19.821 2°55.526 5.3 291 14.3 101760 68
2004-06-25 10:31 51°19.9 2°55.827 4.9 254 14.3 101760 69
2004-06-25 10:32 51°19.986 2°56.148 4.7 259 14.3 101770 68
2004-06-25 10:33 51°20.066 2°56.457 3.8 256 14.3 101760 68
2004-06-25 10:34 51°20.148 2°56.77 4.1 240 14.3 101770 68
2004-06-25 10:35 51°20.236 2°57.068 6.9 270 14.4 101760 68
2004-06-25 10:36 51°20.32 2°57.38 5.5 268 14.3 101780 68
2004-06-25 10:37 51°20.398 2°57.69 4.8 253 14.4 101760 68
2004-06-25 10:38 51°20.472 2°57.994 5.8 272 14.3 101760 67
2004-06-25 10:39 51°20.556 2°58.296 3.2 250 14.4 101770 69
2004-06-25 10:40 51°20.641 2°58.612 3.4 258 14.3 101770 69
2004-06-25 10:41 51°20.726 2°58.916 3.9 236 14.4 101770 69
2004-06-25 10:42 51°20.805 2°59.216 6 279 14.5 101760 69
2004-06-25 10:43 51°20.884 2°59.533 5.9 289 14.4 101760 68
2004-06-25 10:44 51°20.959 2°59.816 6.8 259 14.3 101770 68
2004-06-25 10:45 51°21.021 2°59.911 11.5 261 14.3 101750 67
2004-06-25 10:46 51°21.052 2°59.934 6.3 257 14.3 101770 69
2004-06-25 10:47 51°21.068 2°59.943 11.8 264 14.3 101760 69
2004-06-25 10:48 51°21.088 2°59.943 11.3 280 14.3 101760 69
2004-06-25 10:49 51°21.119 2°59.958 10.6 256 14.4 101770 69
2004-06-25 10:50 51°21.133 2°59.966 9.7 258 14.4 101750 69
2004-06-25 10:51 51°21.145 2°59.972 8.9 257 14.3 101760 68
2004-06-25 10:52 51°21.174 3°0.019 10.2 230 14.3 101770 69
2004-06-25 10:53 51°21.181 3°0.09 9.6 215 14.2 101780 67
2004-06-25 10:54 51°21.186 3°0.16 8 231 14.2 101760 68
2004-06-25 10:55 51°21.198 3°0.224 9.5 233 14.2 101770 67
2004-06-25 10:56 51°21.219 3°0.287 8.5 244 14.3 101770 68
2004-06-25 10:57 51°21.246 3°0.333 8.6 247 14.3 101770 68
2004-06-25 10:58 51°21.277 3°0.371 6.5 255 14.3 101780 68
2004-06-25 10:59 51°21.315 3°0.416 8.3 256 14.2 101770 67
2004-06-25 11:00 51°21.351 3°0.467 7.7 250 14.3 101760 68
2004-06-25 11:01 51°21.376 3°0.53 9.8 238 14.3 101770 69
2004-06-25 11:02 51°21.393 3°0.603 8.5 232 14.2 101770 68
2004-06-25 11:03 51°21.412 3°0.672 7.1 245 14.3 101770 69
2004-06-25 11:04 51°21.435 3°0.734 7.8 250 14.3 101770 67
2004-06-25 11:05 51°21.465 3°0.788 6.9 245 14.3 101770 68
2004-06-25 11:06 51°21.496 3°0.84 7.7 256 14.4 101770 68
2004-06-25 11:07 51°21.531 3°0.891 8.9 242 14.4 101770 68
2004-06-25 11:08 51°21.555 3°0.954 8.6 240 14.4 101770 67
2004-06-25 11:09 51°21.582 3°1.018 7.8 244 14.3 101780 66
2004-06-25 11:10 51°21.612 3°1.075 9.2 242 14.3 101770 67
2004-06-25 11:11 51°21.65 3°1.12 11.5 263 14.4 101770 69
2004-06-25 11:12 51°21.687 3°1.166 6.6 256 14.4 101780 66
2004-06-25 11:13 51°21.718 3°1.22 6 251 14.4 101770 68
2004-06-25 11:14 51°21.744 3°1.285 7.9 228 14.5 101780 66
2004-06-25 11:15 51°21.761 3°1.354 9.3 228 14.5 101780 68
2004-06-25 11:16 51°21.78 3°1.422 7.2 242 14.5 101780 69
2004-06-25 11:17 51°21.802 3°1.486 6 253 14.4 101780 64
2004-06-25 11:18 51°21.829 3°1.546 8 258 14.5 101770 68
2004-06-25 11:19 51°21.858 3°1.6 7.7 246 14.4 101770 66
2004-06-25 11:20 51°21.898 3°1.654 6.9 258 14.4 101770 67
2004-06-25 11:21 51°21.935 3°1.697 7.9 258 14.5 101770 67
2004-06-25 11:22 51°21.963 3°1.752 8.1 231 14.5 101780 69
2004-06-25 11:23 51°21.956 3°1.83 8 172 14.4 101800 66
2004-06-25 11:24 51°21.924 3°1.878 9.3 142 14.5 101790 66
2004-06-25 11:26 51°21.88 3°1.9 10.2 122 14.5 101800 67
2004-06-25 11:27 51°21.839 3°1.895 11.9 97 14.5 101800 66
2004-06-25 11:28 51°21.787 3°1.852 12.6 58 14.5 101790 66
2004-06-25 11:29 51°21.752 3°1.793 11.7 44 14.4 101780 65
2004-06-25 11:30 51°21.721 3°1.74 10.1 55 14.4 101770 67
2004-06-25 11:31 51°21.691 3°1.684 10.7 55 14.4 101770 68
2004-06-25 11:32 51°21.656 3°1.62 10.8 57 14.4 101770 66
2004-06-25 11:33 51°21.624 3°1.563 11.3 57 14.3 101770 63
2004-06-25 11:34 51°21.592 3°1.5 11.8 54 14.3 101780 66
2004-06-25 11:35 51°21.56 3°1.439 11.9 53 14.4 101780 67
2004-06-25 11:36 51°21.527 3°1.374 9.4 51 14.3 101770 64
2004-06-25 11:37 51°21.493 3°1.3 11.2 55 14.4 101790 67
2004-06-25 11:38 51°21.464 3°1.238 11.8 44 14.3 101780 63
2004-06-25 11:39 51°21.432 3°1.175 11.6 45 14.3 101770 63
2004-06-25 11:40 51°21.401 3°1.112 11.2 41 14.4 101780 65
2004-06-25 11:41 51°21.369 3°1.046 11.7 50 14.4 101790 66
2004-06-25 11:42 51°21.337 3°0.978 11.7 39 14.5 101790 68
2004-06-25 11:43 51°21.307 3°0.914 11.7 46 14.5 101800 65
2004-06-25 11:44 51°21.276 3°0.854 10.3 52 14.4 101800 66
2004-06-25 11:45 51°21.242 3°0.788 10.4 54 14.5 101800 67
2004-06-25 11:46 51°21.208 3°0.718 10 49 14.5 101790 65
2004-06-25 11:47 51°21.176 3°0.647 12 36 14.5 101800 68
2004-06-25 11:48 51°21.147 3°0.578 11 46 14.5 101800 68
2004-06-25 11:49 51°21.114 3°0.513 11.6 52 14.5 101800 63
2004-06-25 11:50 51°21.081 3°0.447 10.6 60 14.5 101790 64
2004-06-25 11:51 51°21.048 3°0.381 11.1 56 14.5 101800 64
2004-06-25 11:52 51°21.014 3°0.319 10.3 52 14.6 101810 66
2004-06-25 11:53 51°20.981 3°0.252 8.7 35 14.6 101810 65
2004-06-25 11:54 51°20.951 3°0.183 10.3 34 14.6 101810 66
2004-06-25 11:55 51°20.925 3°0.109 11 32 14.6 101800 64
2004-06-25 11:56 51°20.907 3°0.03 10.6 11 14.7 101810 66
2004-06-25 11:57 51°20.895 2°59.952 11 13 14.8 101810 64
2004-06-25 11:58 51°20.885 2°59.893 9.6 2 14.9 101820 65
2004-06-25 11:59 51°20.873 2°59.865 11.5 343 14.9 101820 65
2004-06-25 12:00 51°20.868 2°59.848 12.5 304 14.9 101790 61
2004-06-25 12:01 51°20.951 2°59.841 13.3 291 14.9 101790 64
2004-06-25 12:02 51°21.112 2°59.993 11.4 282 14.9 101820 65
2004-06-25 12:03 51°21.249 3°0.217 10 281 14.9 101810 63
2004-06-25 12:04 51°21.378 3°0.466 10.1 269 15 101830 63
2004-06-25 12:05 51°21.506 3°0.716 7.6 283 15 101810 63
2004-06-25 12:06 51°21.634 3°0.976 9.9 286 15 101830 64
2004-06-25 12:07 51°21.762 3°1.227 9 280 15 101820 64
2004-06-25 12:08 51°21.883 3°1.473 8.4 282 15 101830 63
2004-06-25 12:09 51°22.009 3°1.725 7.9 284 15 101810 63
2004-06-25 12:10 51°22.137 3°1.98 8.9 283 15.1 101820 64
2004-06-25 12:11 51°22.268 3°2.241 6.8 281 15 101820 63
2004-06-25 12:12 51°22.397 3°2.493 7.3 266 15 101820 64
2004-06-25 12:13 51°22.526 3°2.751 9.2 273 15 101830 62
2004-06-25 12:14 51°22.675 3°2.986 8.5 289 15.1 101820 64
2004-06-25 12:15 51°22.824 3°3.208 9.5 284 15.1 101840 65
2004-06-25 12:16 51°22.98 3°3.428 9.9 284 15.1 101810 65
2004-06-25 12:17 51°23.134 3°3.631 13.2 288 15.1 101830 63
2004-06-25 12:18 51°23.317 3°3.779 9.9 303 15.1 101820 65
2004-06-25 12:19 51°23.525 3°3.914 12.6 304 15.2 101830 66
2004-06-25 12:20 51°23.721 3°4.047 11.9 299 15.1 101800 64
2004-06-25 12:21 51°23.909 3°4.173 9.9 304 15.1 101820 64
2004-06-25 12:22 51°24.039 3°4.376 1.6 97 15.1 101820 64
2004-06-25 12:23 51°24.027 3°4.693 2.8 221 15.2 101850 65
2004-06-25 12:24 51°24.018 3°5.034 3.2 192 15.2 101860 63
2004-06-25 12:25 51°24.007 3°5.371 2.3 223 15.3 101860 62
2004-06-25 12:26 51°24.03 3°5.69 7 266 15.4 101840 62
2004-06-25 12:27 51°24.199 3°5.85 11.3 307 15.3 101820 64
2004-06-25 12:28 51°24.403 3°5.959 9.3 302 15.3 101800 62
2004-06-25 12:29 51°24.588 3°6.119 10.9 290 15.3 101810 65
2004-06-25 12:30 51°24.768 3°6.28 12.7 277 15.2 101830 64
2004-06-25 12:31 51°24.952 3°6.447 11.8 291 15.2 101830 63
2004-06-25 12:32 51°25.133 3°6.605 9.5 293 15.2 101830 63
2004-06-25 12:33 51°25.31 3°6.774 10.7 284 15.2 101830 66
2004-06-25 12:34 51°25.466 3°6.962 9.8 286 15.2 101830 65
2004-06-25 12:35 51°25.633 3°7.164 9 285 15.2 101830 64
2004-06-25 12:36 51°25.792 3°7.354 10.2 291 15.2 101840 65
2004-06-25 12:37 51°25.963 3°7.547 9 290 15.2 101830 66
2004-06-25 12:38 51°26.127 3°7.741 9.6 297 15.2 101850 63
2004-06-25 12:39 51°26.28 3°7.967 8.1 280 15.2 101830 63
2004-06-25 12:40 51°26.403 3°8.141 10.7 283 15.2 101850 62
2004-06-25 12:41 51°26.434 3°8.163 8.8 261 15.2 101850 65
2004-06-25 12:42 51°26.442 3°8.182 11.1 268 15.1 101850 62
2004-06-25 12:43 51°26.482 3°8.217 11.1 266 15.1 101840 63
2004-06-25 12:44 51°26.517 3°8.269 7.8 251 15.1 101850 63
2004-06-25 12:45 51°26.547 3°8.326 7 250 15 101840 63
2004-06-25 12:46 51°26.578 3°8.378 8.2 258 15 101840 63
2004-06-25 12:47 51°26.613 3°8.432 8.1 252 15 101850 62
2004-06-25 12:48 51°26.646 3°8.479 6.3 256 15 101850 64
2004-06-25 12:49 51°26.686 3°8.537 5.9 255 15 101850 64
2004-06-25 12:50 51°26.722 3°8.593 9.6 260 15.1 101850 64
2004-06-25 12:51 51°26.76 3°8.639 7.9 257 15.1 101850 63
2004-06-25 12:52 51°26.797 3°8.671 8.9 270 15.1 101860 65
2004-06-25 12:53 51°26.832 3°8.7 9.3 264 15.1 101850 65
2004-06-25 12:54 51°26.865 3°8.751 6.6 258 15.2 101850 67
2004-06-25 12:55 51°26.897 3°8.811 7.3 262 15.2 101850 64
2004-06-25 12:56 51°26.929 3°8.868 3.3 256 15.2 101850 64
2004-06-25 12:57 51°26.963 3°8.92 7.9 260 15.1 101840 64
2004-06-25 12:58 51°27 3°8.968 8 258 15.2 101860 63
2004-06-25 12:59 51°27.039 3°9.004 11.1 270 15.2 101860 66
2004-06-25 13:00 51°27.075 3°9.053 6.4 256 15.2 101850 63
2004-06-25 13:01 51°27.107 3°9.118 4.9 253 15.2 101850 64
2004-06-25 13:02 51°27.132 3°9.193 5.9 244 15.3 101870 67
2004-06-25 13:03 51°27.157 3°9.267 6.6 242 15.3 101850 68
2004-06-25 13:04 51°27.184 3°9.336 6.7 248 15.3 101850 67
2004-06-25 13:05 51°27.214 3°9.403 5.4 257 15.3 101860 66
2004-06-25 13:06 51°27.243 3°9.469 6.1 256 15.2 101860 65
2004-06-25 13:07 51°27.271 3°9.543 6.7 236 15.2 101860 64
2004-06-25 13:08 51°27.293 3°9.617 6.4 252 15.3 101860 66
2004-06-25 13:09 51°27.321 3°9.683 5.8 257 15.3 101860 66
2004-06-25 13:10 51°27.352 3°9.743 9.1 259 15.3 101850 67
2004-06-25 13:11 51°27.388 3°9.792 10.6 266 15.2 101850 62
2004-06-25 13:12 51°27.425 3°9.831 10.5 263 15.3 101850 65
2004-06-25 13:13 51°27.458 3°9.887 8.4 261 15.3 101850 62
2004-06-25 13:14 51°27.479 3°9.963 7.4 228 15.2 101860 62
2004-06-25 13:15 51°27.474 3°10.032 6.7 214 15.3 101880 64
2004-06-25 13:16 51°27.461 3°10.089 9 217 15.2 101870 62
2004-06-25 13:17 51°27.446 3°10.138 4.9 192 15.2 101870 63
2004-06-25 13:18 51°27.425 3°10.197 6.9 160 15.3 101870 63
2004-06-25 13:19 51°27.369 3°10.257 8.3 119 15.3 101880 62
2004-06-25 13:20 51°27.306 3°10.262 9.3 91 15.4 101870 64
2004-06-25 13:21 51°27.256 3°10.25 7.5 70 15.3 101860 63
2004-06-25 13:22 51°27.214 3°10.233 9 69 15.3 101870 64
2004-06-25 13:23 51°27.172 3°10.206 7.5 46 15.4 101870 68
2004-06-25 13:24 51°27.127 3°10.176 9.2 63 15.2 101850 65
2004-06-25 13:25 51°27.084 3°10.139 8.8 45 15.2 101870 65
2004-06-25 13:26 51°27.042 3°10.104 9.9 37 15.2 101870 67
2004-06-25 13:27 51°27.005 3°10.064 9 23 15.2 101870 67
2004-06-25 13:28 51°26.97 3°10.013 9.2 15 15.2 101870 65
2004-06-25 13:29 51°26.941 3°9.96 9.9 11 15.3 101870 65
2004-06-25 13:30 51°26.914 3°9.904 9.1 4 15.2 101870 63
2004-06-25 13:31 51°26.886 3°9.85 8.4 20 15.3 101870 65
2004-06-25 13:32 51°26.862 3°9.795 8.7 7 15.3 101880 66
2004-06-25 13:33 51°26.841 3°9.729 9.5 2 15.4 101870 65
2004-06-25 13:34 51°26.827 3°9.654 9.8 352 15.4 101880 64
2004-06-25 13:35 51°26.817 3°9.581 7 348 15.4 101870 64
2004-06-25 13:36 51°26.808 3°9.51 8.9 352 15.5 101860 65
2004-06-25 13:37 51°26.797 3°9.44 9.3   15.6 101870 64
2004-06-25 13:38 51°26.784 3°9.377 8.3 358 15.6 101880 64
2004-06-25 13:39 51°26.768 3°9.307 9.1 6 15.5 101870 62
2004-06-25 13:40 51°26.752 3°9.237 8.7 2 15.5 101890 63
2004-06-25 13:41 51°26.733 3°9.162 7.7 3 15.5 101880 63
2004-06-25 13:42 51°26.711 3°9.089 9.3 18 15.5 101880 63
2004-06-25 13:43 51°26.679 3°9.015 9.6 25 15.5 101880 63
2004-06-25 13:44 51°26.642 3°8.952 8.8 35 15.5 101880 63
2004-06-25 13:45 51°26.6 3°8.895 8.7 32 15.4 101880 64
2004-06-25 13:46 51°26.56 3°8.831 8.6 17 15.4 101870 63
2004-06-25 13:47 51°26.529 3°8.759 8 13 15.4 101880 61
2004-06-25 13:48 51°26.507 3°8.691 9.4 356 15.5 101900 65
2004-06-25 13:49 51°26.49 3°8.652 7.7 357 15.5 101880 63
2004-06-25 13:50 51°26.471 3°8.589 10 13 15.6 101880 63
2004-06-25 13:51 51°26.406 3°8.34 12.4 18 15.5 101870 63
2004-06-25 13:52 51°26.249 3°8.072 13 21 15.6 101850 64
2004-06-25 13:53 51°26.072 3°7.824 14.6 27 15.5 101870 62
2004-06-25 13:54 51°25.888 3°7.583 13.1 31 15.5 101860 63
2004-06-25 13:55 51°25.706 3°7.342 13 25 15.5 101860 62
2004-06-25 13:56 51°25.525 3°7.099 13.4 32 15.4 101850 63
2004-06-25 13:57 51°25.347 3°6.862 13.7 31 15.5 101850 64
2004-06-25 13:58 51°25.15 3°6.591 13.1 31 15.5 101860 63
2004-06-25 13:59 51°24.971 3°6.345 13.1 30 15.5 101860 62
2004-06-25 14:00 51°24.792 3°6.097 14.8 34 15.5 101860 64
2004-06-25 14:01 51°24.613 3°5.852 13.5 32 15.5 101870 63
2004-06-25 14:02 51°24.436 3°5.608 13.7 29 15.5 101860 63
2004-06-25 14:03 51°24.242 3°5.334 12.4 30 15.5 101870 63
2004-06-25 14:04 51°24.066 3°5.087 14.7 34 15.6 101870 64
2004-06-25 14:05 51°23.893 3°4.844 12.8 34 15.6 101870 63
2004-06-25 14:06 51°23.705 3°4.58 13.9 34 15.6 101880 62
2004-06-25 14:07 51°23.531 3°4.334 14 33 15.6 101880 64
2004-06-25 14:08 51°23.343 3°4.069 13.1 30 15.6 101880 63
2004-06-25 14:09 51°23.173 3°3.812 13.9 30 15.6 101880 63
2004-06-25 14:10 51°22.998 3°3.56 12.3 36 15.6 101870 62
2004-06-25 14:11 51°22.825 3°3.305 11.5 38 15.6 101870 61
2004-06-25 14:12 51°22.652 3°3.051 12.7 33 15.6 101890 59
2004-06-25 14:13 51°22.479 3°2.792 12.2 25 15.7 101890 63
2004-06-25 14:14 51°22.304 3°2.538 12 32 15.7 101880 61
2004-06-25 14:15 51°22.131 3°2.281 12.1 38 15.7 101880 63
2004-06-25 14:16 51°21.957 3°2.026 12.2 33 15.7 101890 63
2004-06-25 14:17 51°21.782 3°1.778 13.6 30 15.8 101900 65
2004-06-25 14:18 51°21.61 3°1.523 13.8 25 15.8 101890 66
2004-06-25 14:19 51°21.438 3°1.274 15.4 16 15.9 101870 68
2004-06-25 14:20 51°21.284 3°0.997 14.4 14 15.8 101900 67
2004-06-25 14:21 51°21.131 3°0.717 14.7 18 15.8 101900 69
2004-06-25 14:22 51°20.977 3°0.438 14.3 25 15.7 101910 68
2004-06-25 14:23 51°20.824 3°0.155 14.3 12 15.8 101910 70
2004-06-25 14:24 51°20.676 2°59.868 15.1 12 15.7 101900 66
2004-06-25 14:25 51°20.529 2°59.586 14.4 14 15.7 101900 65
2004-06-25 14:26 51°20.372 2°59.297 14.3 18 15.7 101910 65
2004-06-25 14:27 51°20.222 2°59.017 15.1 22 15.6 101900 65
2004-06-25 14:28 51°20.07 2°58.722 14.9 17 15.7 101900 66
2004-06-25 14:29 51°19.92 2°58.432 15.3 13 15.7 101900 66
2004-06-25 14:30 51°19.769 2°58.138 14.8 16 15.7 101920 65
2004-06-25 14:31 51°19.619 2°57.846 15.3 20 15.8 101920 68
2004-06-25 14:32 51°19.47 2°57.552 14.4 13 15.7 101950 65
2004-06-25 14:33 51°19.319 2°57.263 14.9 13 15.8 101920 67
2004-06-25 14:34 51°19.169 2°56.97 14.3 16 15.7 101920 65
2004-06-25 14:35 51°19.02 2°56.678 15 10 15.8 101930 68
2004-06-25 14:36 51°18.871 2°56.392 14.9 11 15.8 101930 66
2004-06-25 14:37 51°18.71 2°56.084 14.1 11 15.8 101920 67
2004-06-25 14:38 51°18.556 2°55.785 14.1 13 15.8 101930 67
2004-06-25 14:40 51°18.395 2°55.473 13.5 17 15.8 101930 67
2004-06-25 14:41 51°18.246 2°55.183 14.9 18 15.8 101920 67
2004-06-25 14:42 51°18.097 2°54.897 14.5 17 15.8 101920 68
2004-06-25 14:43 51°17.947 2°54.612 12.8 11 15.8 101910 70
2004-06-25 14:44 51°17.794 2°54.333 15.2 19 15.8 101930 71
2004-06-25 14:45 51°17.639 2°54.057 15.8 17 15.8 101920 70
2004-06-25 14:46 51°17.485 2°53.783 14.5 24 15.7 101930 70
2004-06-25 14:47 51°17.315 2°53.537 14.2 25 15.7 101930 70
2004-06-25 14:48 51°17.135 2°53.336 12.5 40 15.7 101920 68
2004-06-25 14:49 51°16.904 2°53.319 10.8 54 15.6 101930 70
2004-06-25 14:50 51°16.683 2°53.44 10.7 61 15.5 101930 69
2004-06-25 14:51 51°16.472 2°53.578 10.5 66 15.5 101930 69
2004-06-25 14:52 51°16.261 2°53.715 10.7 56 15.5 101940 67
2004-06-25 14:53 51°16.049 2°53.859 9.4 54 15.5 101930 66
2004-06-25 14:54 51°15.837 2°53.991 10.7 56 15.5 101940 66
2004-06-25 14:55 51°15.62 2°54.114 9.5 56 15.5 101940 68
2004-06-25 14:56 51°15.408 2°54.244 9.1 61 15.6 101940 68
2004-06-25 14:57 51°15.197 2°54.381 8.9 65 15.6 101940 68
2004-06-25 14:58 51°14.987 2°54.516 8.6 61 15.6 101950 67
2004-06-25 14:59 51°14.778 2°54.653 8.5 64 15.6 101950 68
2004-06-25 15:00 51°14.594 2°54.835 8.1 61 15.7 101950 71
2004-06-25 15:01 51°14.401 2°55.068 6.2 69 15.7 101950 70
2004-06-25 15:02 51°14.244 2°55.294 5.8 71 15.7 101960 68
2004-06-25 15:03 51°14.1 2°55.429 4.4 101 15.8 101960 68
2004-06-25 15:04 51°13.973 2°55.522 5.4 59 16 101960 64